Charlotte Roush — WDE5112 — position and weather

sailwx.info

Track history (hours):
 
Tides and Currents Weather Stations Pressure Air Temp Water Temp Dewpoint Dewpoint Depression Visibility Wind Speed Wind Dir Waves Ship Positions

Charlotte Roush

Owner: AEP River Operations LLC, Chesterfield, MO. More information available from US FCC via Universal Licensing System and Coast Guard Vessel Documentation Center.

Last reported at 2014-Nov-28 15:32 UTC. Time now 2014-Nov-29 01:19 UTC.
Position N 29°57' W 090°01'.

Length 35 m; draft 3 m.

Type: Towing. MMSI: 367362230.

Date/timePositionNaut miles runAvg speedWind from/ knotsBaromVisibWave heightAir tempDewpointWater temp
2014-Nov-28 15:32N 29°57' W 090°01'4 4.3
2014-Nov-28 14:33N 29°55' W 090°05'3 2.9
2014-Nov-28 13:28N 29°57' W 090°08'0 0.0
2014-Nov-28 12:18N 29°57' W 090°08'0 0.0
2014-Nov-28 11:32N 29°57' W 090°08'35 1.6
2014-Nov-27 13:21N 29°60' W 090°48'1 0.7
2014-Nov-27 12:03N 29°59' W 090°49'1 1.6
2014-Nov-27 11:25N 29°60' W 090°50'0 0.0
2014-Nov-27 09:10N 29°60' W 090°50'2 0.1
2014-Nov-26 08:33N 30°00' W 090°48'2 1.8
2014-Nov-26 07:33N 30°01' W 090°50'2 1.6
2014-Nov-26 06:17N 29°60' W 090°48'7 4.0
2014-Nov-26 04:31N 30°03' W 090°40'  
2014-Nov-19 09:32N 29°57' W 090°09'4 3.7
2014-Nov-19 08:30N 29°55' W 090°06'4 3.6
2014-Nov-19 07:20N 29°57' W 090°01'1 0.7
2014-Nov-19 06:33N 29°57' W 090°01'0 0.1
2014-Nov-19 05:26N 29°57' W 090°01'0 0.1
2014-Nov-19 04:33N 29°57' W 090°01'  
Track history (hours):
 
Tides and Currents Weather Stations Pressure Air Temp Water Temp Dewpoint Dewpoint Depression Visibility Wind Speed Wind Dir Waves Ship Positions

Charlotte Roush

Owner: AEP River Operations LLC, Chesterfield, MO. More information available from US FCC via Universal Licensing System and Coast Guard Vessel Documentation Center.

Last reported at 2014-Nov-28 15:32 UTC. Time now 2014-Nov-29 01:19 UTC.
Position N 29°57' W 090°01'.

Length 35 m; draft 3 m.

Type: Towing. MMSI: 367362230.

Date/timePositionNaut miles runAvg speedWind from/ knotsBaromVisibWave heightAir tempDewpointWater temp
2014-Nov-28 15:32N 29°57' W 090°01'4 4.3
2014-Nov-28 14:33N 29°55' W 090°05'3 2.9
2014-Nov-28 13:28N 29°57' W 090°08'0 0.0
2014-Nov-28 12:18N 29°57' W 090°08'0 0.0
2014-Nov-28 11:32N 29°57' W 090°08'35 1.6
2014-Nov-27 13:21N 29°60' W 090°48'1 0.7
2014-Nov-27 12:03N 29°59' W 090°49'1 1.6
2014-Nov-27 11:25N 29°60' W 090°50'0 0.0
2014-Nov-27 09:10N 29°60' W 090°50'2 0.1
2014-Nov-26 08:33N 30°00' W 090°48'2 1.8
2014-Nov-26 07:33N 30°01' W 090°50'2 1.6
2014-Nov-26 06:17N 29°60' W 090°48'7 4.0
2014-Nov-26 04:31N 30°03' W 090°40'  
2014-Nov-19 09:32N 29°57' W 090°09'4 3.7
2014-Nov-19 08:30N 29°55' W 090°06'4 3.6
2014-Nov-19 07:20N 29°57' W 090°01'1 0.7
2014-Nov-19 06:33N 29°57' W 090°01'0 0.1
2014-Nov-19 05:26N 29°57' W 090°01'0 0.1
2014-Nov-19 04:33N 29°57' W 090°01'  

Dump ship's entire track history